createdAt,value
2019-02-18T00:00:45.842Z,23.03
2019-02-18T00:03:15.213Z,23.37
2019-02-18T00:05:44.833Z,23.83
2019-02-18T00:08:14.313Z,24.13
2019-02-18T00:10:43.707Z,23.47
2019-02-18T00:13:13.225Z,24.93
2019-02-18T00:15:42.593Z,24.23
2019-02-18T00:18:12.305Z,23.10
2019-02-18T00:20:42.287Z,22.07
2019-02-18T00:23:11.926Z,22.73
2019-02-18T00:25:41.424Z,21.40
2019-02-18T00:28:10.813Z,21.47
2019-02-18T00:30:40.237Z,21.13
2019-02-18T00:33:09.619Z,19.90
2019-02-18T00:35:38.993Z,20.10
2019-02-18T00:38:08.367Z,22.77
2019-02-18T00:40:37.844Z,18.77
2019-02-18T00:43:07.247Z,17.77
2019-02-18T00:45:36.688Z,21.07
2019-02-18T00:48:06.111Z,22.03
2019-02-18T00:50:35.515Z,21.60
2019-02-18T00:53:04.904Z,22.60
2019-02-18T00:55:34.303Z,23.70
2019-02-18T00:58:03.713Z,23.03
2019-02-18T01:00:33.224Z,23.83
2019-02-18T01:03:02.767Z,22.37
2019-02-18T01:05:32.295Z,24.27
2019-02-18T01:08:01.735Z,22.53
2019-02-18T01:10:31.153Z,28.43
2019-02-18T01:13:00.637Z,25.17
2019-02-18T01:15:30.041Z,23.53
2019-02-18T01:17:59.438Z,23.30
2019-02-18T01:20:28.825Z,22.93
2019-02-18T01:22:58.217Z,23.17
2019-02-18T01:25:27.591Z,23.87
2019-02-18T01:27:57.050Z,24.10
2019-02-18T01:30:26.547Z,24.37
2019-02-18T01:32:56.008Z,19.50
2019-02-18T01:35:25.413Z,18.77
2019-02-18T01:37:54.877Z,21.80
2019-02-18T01:40:24.267Z,21.30
2019-02-18T01:42:53.752Z,24.27
2019-02-18T01:45:23.119Z,21.57
2019-02-18T01:47:52.537Z,23.30
2019-02-18T01:50:21.945Z,20.57
2019-02-18T01:52:51.351Z,23.97
2019-02-18T01:55:20.799Z,23.03
2019-02-18T01:57:50.291Z,22.73
2019-02-18T02:00:19.755Z,25.47
2019-02-18T02:02:49.127Z,25.87
2019-02-18T02:05:18.545Z,23.73
2019-02-18T02:07:55.830Z,21.80
2019-02-18T02:10:19.202Z,21.27
2019-02-18T02:12:48.724Z,20.57
2019-02-18T02:15:28.681Z,22.33
2019-02-18T02:17:58.187Z,26.23
2019-02-18T02:20:27.563Z,26.40
2019-02-18T02:22:57.071Z,21.63
2019-02-18T02:25:26.711Z,25.43
2019-02-18T02:27:56.109Z,25.80
2019-02-18T02:30:25.502Z,24.13
2019-02-18T02:32:54.951Z,23.77
2019-02-18T02:35:24.433Z,22.20
2019-02-18T02:37:53.822Z,25.70
2019-02-18T02:40:23.317Z,21.20
2019-02-18T02:45:33.848Z,22.97
2019-02-18T02:50:50.069Z,22.00
2019-02-18T02:53:19.455Z,24.10
2019-02-18T02:55:48.877Z,24.67
2019-02-18T02:58:18.336Z,22.33
2019-02-18T03:00:47.777Z,21.83
2019-02-18T03:03:17.203Z,26.07
2019-02-18T03:05:46.725Z,23.43
2019-02-18T03:08:20.277Z,23.40
2019-02-18T03:13:21.882Z,21.73
2019-02-18T03:15:51.339Z,24.73
2019-02-18T03:18:20.755Z,23.30
2019-02-18T03:20:50.098Z,24.63
2019-02-18T03:23:19.502Z,24.80
2019-02-18T03:25:49.756Z,23.47
2019-02-18T03:31:17.096Z,20.73
2019-02-18T03:33:58.288Z,22.70
2019-02-18T03:36:27.790Z,25.23
2019-02-18T03:38:57.255Z,24.20
2019-02-18T03:41:26.774Z,22.97
2019-02-18T03:43:56.277Z,26.83
2019-02-18T03:46:25.718Z,26.97
2019-02-18T03:48:55.164Z,19.93
2019-02-18T03:51:24.575Z,22.07
2019-02-18T03:53:54.059Z,20.77
2019-02-18T03:56:23.510Z,22.27
2019-02-18T03:58:53.125Z,21.63
2019-02-18T04:01:22.664Z,23.77
2019-02-18T04:03:52.118Z,23.40
2019-02-18T04:06:21.674Z,23.53
2019-02-18T04:08:51.108Z,22.93
2019-02-18T04:11:20.502Z,20.30
2019-02-18T04:13:55.758Z,24.27
2019-02-18T04:16:30.646Z,23.13
2019-02-18T04:19:18.767Z,24.47
2019-02-18T04:21:48.199Z,21.17
2019-02-18T04:24:17.654Z,23.23
2019-02-18T04:26:47.050Z,24.03
2019-02-18T04:29:16.445Z,20.83
2019-02-18T04:31:45.881Z,21.50
2019-02-18T04:34:15.262Z,22.40
2019-02-18T04:36:44.666Z,23.50
2019-02-18T04:39:14.037Z,21.50
2019-02-18T04:41:43.439Z,22.47
2019-02-18T04:44:12.949Z,24.07
2019-02-18T04:46:42.356Z,24.63
2019-02-18T04:49:11.747Z,22.17
2019-02-18T04:51:41.243Z,18.93
2019-02-18T04:54:17.630Z,20.10
2019-02-18T04:56:47.143Z,19.17
2019-02-18T04:59:16.639Z,20.53
2019-02-18T05:01:46.063Z,23.07
2019-02-18T05:04:15.532Z,22.93
2019-02-18T05:06:45.053Z,23.17
2019-02-18T05:09:14.405Z,21.33
2019-02-18T05:11:43.794Z,21.13
2019-02-18T05:14:13.316Z,20.30
2019-02-18T05:16:42.677Z,20.10
2019-02-18T05:19:12.092Z,23.37
2019-02-18T05:21:41.602Z,20.60
2019-02-18T05:24:11.093Z,24.27
2019-02-18T05:29:15.686Z,20.57
2019-02-18T05:31:52.602Z,22.80
2019-02-18T05:34:22.045Z,19.93
2019-02-18T05:36:51.619Z,20.80
2019-02-18T05:39:20.994Z,23.30
2019-02-18T05:41:50.381Z,23.73
2019-02-18T05:44:19.829Z,23.17
2019-02-18T05:46:49.192Z,22.03
2019-02-18T05:49:18.648Z,20.13
2019-02-18T05:51:48.089Z,21.57
2019-02-18T05:54:17.570Z,24.17
2019-02-18T05:56:47.971Z,23.43
2019-02-18T05:59:17.470Z,20.07
2019-02-18T06:01:46.919Z,19.97
2019-02-18T06:04:16.407Z,23.07
2019-02-18T06:06:45.893Z,19.97
2019-02-18T06:09:15.361Z,22.00
2019-02-18T06:11:46.269Z,23.47
2019-02-18T06:14:15.784Z,20.13
2019-02-18T06:16:45.184Z,24.47
2019-02-18T06:19:14.582Z,22.10
2019-02-18T06:21:44.021Z,22.10
2019-02-18T06:24:13.562Z,19.17
2019-02-18T06:26:42.967Z,19.93
2019-02-18T06:29:12.392Z,21.00
2019-02-18T06:31:41.882Z,24.83
2019-02-18T06:34:11.253Z,21.70
2019-02-18T06:36:40.771Z,22.90
2019-02-18T06:39:10.147Z,21.53
2019-02-18T06:41:39.627Z,22.53
2019-02-18T06:44:08.992Z,24.13
2019-02-18T06:46:40.110Z,19.07
2019-02-18T06:49:11.147Z,19.90
2019-02-18T06:51:40.552Z,23.53
2019-02-18T06:54:09.988Z,22.00
2019-02-18T06:56:55.867Z,21.77
2019-02-18T06:59:26.906Z,24.87
2019-02-18T07:01:58.006Z,27.50
2019-02-18T07:04:46.943Z,26.67
2019-02-18T07:07:32.910Z,27.43
2019-02-18T07:10:03.924Z,23.00
2019-02-18T07:12:35.074Z,23.20
2019-02-18T07:15:05.266Z,22.40
2019-02-18T07:17:34.822Z,26.97
2019-02-18T07:20:06.032Z,22.17
2019-02-18T07:22:35.426Z,23.27
2019-02-18T07:25:07.308Z,23.67
2019-02-18T07:27:36.852Z,26.00
2019-02-18T07:30:09.656Z,23.90
2019-02-18T07:32:39.236Z,28.80
2019-02-18T07:35:08.700Z,24.87
2019-02-18T07:37:38.121Z,28.23
2019-02-18T07:40:09.226Z,27.87
2019-02-18T07:42:38.624Z,26.13
2019-02-18T07:45:10.006Z,25.10
2019-02-18T07:47:39.474Z,25.20
2019-02-18T07:50:19.970Z,27.37
2019-02-18T07:52:41.132Z,24.47
2019-02-18T07:55:10.593Z,25.00
2019-02-18T07:57:39.988Z,25.60
2019-02-18T08:00:12.532Z,22.63
2019-02-18T08:02:41.891Z,25.40
2019-02-18T08:05:11.294Z,21.87
2019-02-18T08:07:40.663Z,24.50
2019-02-18T08:10:12.309Z,24.97
2019-02-18T08:12:41.958Z,20.10
2019-02-18T08:15:11.768Z,23.07
2019-02-18T08:17:41.272Z,20.37
2019-02-18T08:20:11.568Z,19.97
2019-02-18T08:22:41.993Z,30.97
2019-02-18T08:25:12.853Z,24.37
2019-02-18T08:27:42.314Z,119.43
2019-02-18T08:30:15.162Z,117.40
2019-02-18T08:32:44.709Z,40.37
2019-02-18T08:35:14.154Z,23.63
2019-02-18T08:37:43.619Z,25.80
2019-02-18T08:40:22.077Z,27.93
2019-02-18T08:42:44.266Z,22.20
2019-02-18T08:45:14.008Z,22.77
2019-02-18T08:47:43.463Z,25.67
2019-02-18T08:50:13.326Z,21.07
2019-02-18T08:52:42.774Z,24.70
2019-02-18T08:55:13.718Z,21.93
2019-02-18T08:57:43.204Z,23.07
2019-02-18T09:00:15.398Z,25.57
2019-02-18T09:02:45.045Z,26.40
2019-02-18T09:05:14.629Z,22.33
2019-02-18T09:07:44.059Z,21.07
2019-02-18T09:10:14.450Z,25.13
2019-02-18T09:12:43.893Z,20.73
2019-02-18T09:15:14.365Z,22.07
2019-02-18T09:17:44.027Z,18.87
2019-02-18T09:20:13.727Z,21.10
2019-02-18T09:22:44.888Z,24.90
2019-02-18T09:25:16.076Z,19.73
2019-02-18T09:27:45.566Z,20.23
2019-02-18T09:30:16.659Z,19.73
2019-02-18T09:32:46.232Z,18.40
2019-02-18T09:35:15.620Z,22.40
2019-02-18T09:37:45.067Z,20.97
2019-02-18T09:40:14.597Z,24.50
2019-02-18T09:42:44.081Z,21.43
2019-02-18T09:45:15.061Z,20.30
2019-02-18T09:47:44.647Z,20.63
2019-02-18T09:50:14.031Z,18.83
2019-02-18T09:52:43.544Z,20.67
2019-02-18T09:55:13.051Z,21.00
2019-02-18T09:57:42.504Z,23.23
2019-02-18T10:00:12.878Z,20.33
2019-02-18T10:02:42.359Z,19.13
2019-02-18T10:05:11.868Z,21.23
2019-02-18T10:07:41.336Z,22.73
2019-02-18T10:10:12.078Z,21.70
2019-02-18T10:12:41.618Z,16.63
2019-02-18T10:15:13.974Z,15.43
2019-02-18T10:17:43.448Z,20.23
2019-02-18T10:20:14.000Z,20.10
2019-02-18T10:22:43.454Z,15.23
2019-02-18T10:25:13.852Z,17.20
2019-02-18T10:27:43.340Z,18.23
2019-02-18T10:30:13.102Z,14.97
2019-02-18T10:32:42.490Z,22.73
2019-02-18T10:35:13.379Z,13.53
2019-02-18T10:37:42.882Z,16.60
2019-02-18T10:40:12.420Z,15.27
2019-02-18T10:42:41.976Z,15.90
2019-02-18T10:45:13.207Z,13.27
2019-02-18T10:47:42.733Z,14.30
2019-02-18T10:50:12.648Z,15.70
2019-02-18T10:52:42.123Z,15.53
2019-02-18T10:55:12.111Z,21.17
2019-02-18T10:57:41.781Z,17.77
2019-02-18T11:00:15.449Z,16.83
2019-02-18T11:02:45.184Z,14.87
2019-02-18T11:05:14.638Z,19.10
2019-02-18T11:07:44.034Z,14.40
2019-02-18T11:10:15.076Z,15.43
2019-02-18T11:12:44.658Z,14.93
2019-02-18T11:15:14.811Z,15.00
2019-02-18T11:17:44.638Z,16.07
2019-02-18T11:20:14.586Z,15.53
2019-02-18T11:22:44.031Z,14.83
2019-02-18T11:25:14.907Z,13.73
2019-02-18T11:27:44.411Z,15.53
2019-02-18T11:30:17.637Z,15.50
2019-02-18T11:32:47.110Z,19.17
2019-02-18T11:35:16.585Z,17.20
2019-02-18T11:37:46.006Z,15.30
2019-02-18T11:40:18.867Z,21.20
2019-02-18T11:42:48.324Z,16.87
2019-02-18T11:45:17.809Z,14.17
2019-02-18T11:47:47.672Z,15.53
2019-02-18T11:50:17.176Z,15.00
2019-02-18T11:52:46.619Z,13.80
2019-02-18T11:55:16.032Z,17.63
2019-02-18T11:57:45.750Z,20.17
2019-02-18T12:00:16.280Z,13.50
2019-02-18T12:02:45.742Z,15.60
2019-02-18T12:05:15.205Z,17.83
2019-02-18T12:07:44.608Z,17.87
2019-02-18T12:10:14.350Z,18.97
2019-02-18T12:12:43.971Z,18.80
2019-02-18T12:15:16.633Z,13.77
2019-02-18T12:17:46.190Z,17.33
2019-02-18T12:20:17.207Z,18.00
2019-02-18T12:22:46.786Z,17.37
2019-02-18T12:25:16.169Z,16.90
2019-02-18T12:27:45.790Z,15.77
2019-02-18T12:30:16.500Z,18.07
2019-02-18T12:32:46.057Z,13.80
2019-02-18T12:35:15.555Z,16.43
2019-02-18T12:37:54.698Z,17.80
2019-02-18T12:40:16.205Z,18.20
2019-02-18T12:42:45.665Z,17.57
2019-02-18T12:45:15.131Z,20.63
2019-02-18T12:47:44.607Z,18.57
2019-02-18T12:50:14.152Z,15.47
2019-02-18T12:52:43.737Z,15.97
2019-02-18T12:55:13.776Z,17.73
2019-02-18T12:57:43.257Z,21.30
2019-02-18T13:00:14.812Z,18.20
2019-02-18T13:02:45.277Z,19.43
2019-02-18T13:05:14.929Z,19.93
2019-02-18T13:07:44.413Z,17.77
2019-02-18T13:10:14.058Z,17.40
2019-02-18T13:12:43.970Z,19.03
2019-02-18T13:15:17.875Z,19.13
2019-02-18T13:17:47.372Z,19.73
2019-02-18T13:20:16.822Z,17.40
2019-02-18T13:22:46.222Z,21.70
2019-02-18T13:25:15.619Z,20.47
2019-02-18T13:27:45.485Z,19.43
2019-02-18T13:30:16.955Z,16.63
2019-02-18T13:32:46.405Z,22.57
2019-02-18T13:35:15.902Z,22.60
2019-02-18T13:37:45.346Z,22.97
2019-02-18T13:40:17.888Z,17.37
2019-02-18T13:42:47.629Z,22.00
2019-02-18T13:45:17.203Z,22.63
2019-02-18T13:47:46.645Z,21.43
2019-02-18T13:50:16.041Z,24.40
2019-02-18T13:52:45.559Z,23.43
2019-02-18T13:55:15.143Z,21.40
2019-02-18T13:57:44.889Z,16.90
2019-02-18T14:00:18.421Z,19.97
2019-02-18T14:02:48.625Z,16.63
2019-02-18T14:05:19.639Z,19.83
2019-02-18T14:07:49.114Z,18.17
2019-02-18T14:10:19.143Z,18.13
2019-02-18T14:12:48.735Z,16.40
2019-02-18T14:15:18.861Z,19.60
2019-02-18T14:17:48.295Z,16.23
2019-02-18T14:20:18.502Z,16.60
2019-02-18T14:22:47.975Z,15.77
2019-02-18T14:25:17.654Z,21.53
2019-02-18T14:27:47.039Z,16.77
2019-02-18T14:30:18.433Z,18.53
2019-02-18T14:32:47.881Z,18.17
2019-02-18T14:35:18.021Z,18.33
2019-02-18T14:37:47.848Z,17.83
2019-02-18T14:40:19.276Z,22.00
2019-02-18T14:42:48.820Z,16.47
2019-02-18T14:45:18.642Z,17.43
2019-02-18T14:47:48.108Z,19.80
2019-02-18T14:50:18.453Z,20.70
2019-02-18T14:52:48.266Z,19.97
2019-02-18T14:55:17.773Z,20.30
2019-02-18T14:57:47.365Z,17.80
2019-02-18T15:00:23.642Z,23.03
2019-02-18T15:02:55.069Z,17.77
2019-02-18T15:05:25.839Z,18.13
2019-02-18T15:07:55.288Z,18.07
2019-02-18T15:10:24.695Z,18.80
2019-02-18T15:12:54.208Z,20.13
2019-02-18T15:15:23.605Z,16.93
2019-02-18T15:17:53.115Z,17.53
2019-02-18T15:20:22.842Z,18.13
2019-02-18T15:22:52.339Z,17.57
2019-02-18T15:25:21.712Z,15.93
2019-02-18T15:27:51.227Z,20.83
2019-02-18T15:30:20.929Z,17.87
2019-02-18T15:32:50.413Z,21.53
2019-02-18T15:35:20.161Z,23.30
2019-02-18T15:37:49.600Z,18.07
2019-02-18T15:40:19.898Z,20.87
2019-02-18T15:42:49.348Z,18.27
2019-02-18T15:45:18.881Z,20.77
2019-02-18T15:47:48.432Z,19.17
2019-02-18T15:50:17.915Z,19.80
2019-02-18T15:52:47.384Z,19.50
2019-02-18T15:55:16.811Z,19.80
2019-02-18T15:57:46.281Z,19.33
2019-02-18T16:00:18.448Z,19.93
2019-02-18T16:02:48.321Z,20.63
2019-02-18T16:05:17.822Z,21.27
2019-02-18T16:07:47.308Z,19.57
2019-02-18T16:10:18.413Z,17.40
2019-02-18T16:12:50.728Z,20.53
2019-02-18T16:15:18.985Z,21.97
2019-02-18T16:17:48.448Z,22.97
2019-02-18T16:20:17.877Z,17.83
2019-02-18T16:22:47.295Z,21.90
2019-02-18T16:25:19.443Z,18.53
2019-02-18T16:27:48.821Z,18.27
2019-02-18T16:30:18.268Z,21.97
2019-02-18T16:32:47.761Z,23.20
2019-02-18T16:35:17.224Z,20.33
2019-02-18T16:37:46.648Z,18.50
2019-02-18T16:40:17.744Z,19.33
2019-02-18T16:42:47.218Z,19.23
2019-02-18T16:45:16.681Z,20.50
2019-02-18T16:47:46.256Z,18.57
2019-02-18T16:50:15.708Z,19.83
2019-02-18T16:52:45.100Z,19.67
2019-02-18T16:55:15.574Z,19.67
2019-02-18T16:57:45.030Z,18.67
2019-02-18T17:00:20.009Z,17.50
2019-02-18T17:02:50.954Z,17.57
2019-02-18T17:05:20.457Z,18.60
2019-02-18T17:07:50.011Z,16.03
2019-02-18T17:10:19.556Z,19.83
2019-02-18T17:12:49.326Z,14.63
2019-02-18T17:15:18.732Z,18.47
2019-02-18T17:17:48.130Z,16.33
2019-02-18T17:20:17.534Z,19.47
2019-02-18T17:22:47.001Z,22.60
2019-02-18T17:25:16.386Z,15.53
2019-02-18T17:27:46.222Z,20.33
2019-02-18T17:30:16.446Z,18.50
2019-02-18T17:32:45.920Z,18.30
2019-02-18T17:35:15.636Z,19.80
2019-02-18T17:37:45.124Z,19.93
2019-02-18T17:40:14.968Z,18.63
2019-02-18T17:42:44.721Z,19.60
2019-02-18T17:45:16.646Z,22.57
2019-02-18T17:47:46.064Z,20.30
2019-02-18T17:50:16.366Z,18.63
2019-02-18T17:52:46.453Z,18.17
2019-02-18T17:55:16.882Z,20.40
2019-02-18T17:57:46.320Z,18.47
2019-02-18T18:00:22.050Z,25.20
2019-02-18T18:02:51.533Z,19.37
2019-02-18T18:05:21.046Z,17.27
2019-02-18T18:07:50.518Z,20.67
2019-02-18T18:10:20.192Z,17.67
2019-02-18T18:12:49.732Z,16.27
2019-02-18T18:15:20.100Z,19.17
2019-02-18T18:17:49.596Z,18.10
2019-02-18T18:20:19.042Z,18.63
2019-02-18T18:22:48.422Z,23.07
2019-02-18T18:25:18.032Z,22.67
2019-02-18T18:27:47.494Z,17.57
2019-02-18T18:30:18.333Z,20.93
2019-02-18T18:32:47.720Z,17.67
2019-02-18T18:35:17.096Z,15.53
2019-02-18T18:37:46.652Z,15.10
2019-02-18T18:40:20.530Z,19.13
2019-02-18T18:42:49.994Z,15.20
2019-02-18T18:45:19.675Z,17.40
2019-02-18T18:47:49.126Z,16.80
2019-02-18T18:50:20.353Z,13.60
2019-02-18T18:52:49.907Z,15.63
2019-02-18T18:55:19.499Z,14.57
2019-02-18T18:57:48.926Z,18.13
2019-02-18T19:00:24.408Z,15.13
2019-02-18T19:02:53.882Z,14.47
2019-02-18T19:05:23.573Z,18.53
2019-02-18T19:07:53.019Z,17.50
2019-02-18T19:10:22.424Z,17.77
2019-02-18T19:12:51.882Z,19.87
2019-02-18T19:15:22.996Z,15.27
2019-02-18T19:17:52.489Z,14.97
2019-02-18T19:20:21.861Z,17.07
2019-02-18T19:22:51.298Z,16.50
2019-02-18T19:25:20.796Z,14.57
2019-02-18T19:27:50.150Z,19.23
2019-02-18T19:30:31.252Z,17.77
2019-02-18T19:33:00.720Z,16.40
2019-02-18T19:35:30.394Z,18.40
2019-02-18T19:37:59.773Z,17.17
2019-02-18T19:40:29.248Z,17.57
2019-02-18T19:42:58.744Z,18.63
2019-02-18T19:45:28.182Z,18.00
2019-02-18T19:47:57.667Z,18.10
2019-02-18T19:50:27.071Z,18.03
2019-02-18T19:52:56.566Z,21.33
2019-02-18T19:55:26.083Z,17.87
2019-02-18T19:57:55.501Z,17.70
2019-02-18T20:00:24.884Z,18.70
2019-02-18T20:02:54.446Z,22.93
2019-02-18T20:05:23.848Z,20.37
2019-02-18T20:07:53.264Z,18.50
2019-02-18T20:10:22.662Z,19.83
2019-02-18T20:12:52.394Z,24.27
2019-02-18T20:15:21.815Z,18.00
2019-02-18T20:17:51.274Z,21.13
2019-02-18T20:20:20.780Z,19.73
2019-02-18T20:22:50.230Z,23.10
2019-02-18T20:25:19.636Z,18.87
2019-02-18T20:27:49.299Z,22.83
2019-02-18T20:30:18.832Z,21.23
2019-02-18T20:32:48.220Z,25.77
2019-02-18T20:35:17.700Z,20.67
2019-02-18T20:37:47.175Z,22.33
2019-02-18T20:40:16.712Z,18.87
2019-02-18T20:42:46.110Z,21.13
2019-02-18T20:45:15.709Z,20.33
2019-02-18T20:47:45.101Z,25.43
2019-02-18T20:50:15.536Z,22.10
2019-02-18T20:52:45.013Z,23.37
2019-02-18T20:55:17.165Z,25.67
2019-02-18T20:57:46.619Z,22.93
2019-02-18T21:00:18.666Z,22.43
2019-02-18T21:02:48.225Z,20.17
2019-02-18T21:05:17.729Z,21.30
2019-02-18T21:07:47.115Z,23.53
2019-02-18T21:10:24.041Z,30.53
2019-02-18T21:12:53.695Z,21.20
2019-02-18T21:15:23.166Z,25.63
2019-02-18T21:17:52.675Z,22.37
2019-02-18T21:20:22.047Z,26.00
2019-02-18T21:22:51.761Z,21.57
2019-02-18T21:25:21.206Z,24.40
2019-02-18T21:27:50.606Z,24.40
2019-02-18T21:30:20.038Z,20.77
2019-02-18T21:32:49.514Z,24.37
2019-02-18T21:35:18.933Z,24.03
2019-02-18T21:37:48.341Z,23.93
2019-02-18T21:40:17.803Z,24.60
2019-02-18T21:42:47.245Z,23.40
2019-02-18T21:45:16.804Z,22.90
2019-02-18T21:47:46.206Z,22.07
2019-02-18T21:50:15.735Z,22.10
2019-02-18T21:52:45.198Z,24.57
2019-02-18T21:55:14.611Z,22.53
2019-02-18T21:57:44.098Z,27.27
2019-02-18T22:00:17.856Z,25.73
2019-02-18T22:02:47.719Z,23.40
2019-02-18T22:05:17.483Z,22.53
2019-02-18T22:07:47.035Z,25.33
2019-02-18T22:10:16.497Z,23.37
2019-02-18T22:12:45.962Z,22.70
2019-02-18T22:15:15.860Z,26.50
2019-02-18T22:17:45.367Z,27.23
2019-02-18T22:20:15.043Z,21.97
2019-02-18T22:22:44.525Z,23.80
2019-02-18T22:25:14.369Z,25.70
2019-02-18T22:27:44.623Z,26.57
2019-02-18T22:30:15.521Z,26.53
2019-02-18T22:32:44.943Z,25.80
2019-02-18T22:35:14.605Z,24.13
2019-02-18T22:37:44.093Z,20.63
2019-02-18T22:40:14.109Z,21.07
2019-02-18T22:42:43.570Z,22.57
2019-02-18T22:45:13.108Z,22.27
2019-02-18T22:47:42.586Z,24.40
2019-02-18T22:50:12.793Z,23.70
2019-02-18T22:52:42.269Z,24.43
2019-02-18T22:55:11.923Z,26.10
2019-02-18T22:57:41.391Z,24.30
2019-02-18T23:00:45.133Z,18.97
2019-02-18T23:03:14.600Z,20.07
2019-02-18T23:05:44.011Z,18.93
2019-02-18T23:08:13.398Z,19.23
2019-02-18T23:10:42.869Z,23.03
2019-02-18T23:13:12.299Z,25.00
2019-02-18T23:15:41.867Z,25.57
2019-02-18T23:18:11.348Z,31.13
2019-02-18T23:20:40.807Z,39.60
2019-02-18T23:23:10.203Z,45.93
2019-02-18T23:25:39.765Z,45.63
2019-02-18T23:28:09.203Z,54.47
2019-02-18T23:30:39.718Z,58.30
2019-02-18T23:33:09.185Z,50.93
2019-02-18T23:35:39.044Z,52.63
2019-02-18T23:38:08.519Z,58.07
2019-02-18T23:40:37.923Z,57.47
2019-02-18T23:43:07.419Z,60.77
2019-02-18T23:45:36.817Z,72.70
2019-02-18T23:48:06.193Z,67.10
2019-02-18T23:50:35.603Z,74.43
2019-02-18T23:53:05.013Z,69.80
2019-02-18T23:55:34.487Z,63.83
2019-02-18T23:58:03.973Z,64.17
